sensor_id;sensor_type;location;lat;lon;timestamp;P1;durP1;ratioP1;P2;durP2;ratioP2
34920;SDS011;21128;50.016;20.002;2024-01-16T00:01:01;9.60;;;5.60;;
34920;SDS011;21128;50.016;20.002;2024-01-16T00:03:44;6.60;;;4.50;;
34920;SDS011;21128;50.016;20.002;2024-01-16T00:06:11;10.50;;;5.60;;
34920;SDS011;21128;50.016;20.002;2024-01-16T00:08:38;8.20;;;5.40;;
34920;SDS011;21128;50.016;20.002;2024-01-16T00:11:05;9.90;;;5.30;;
34920;SDS011;21128;50.016;20.002;2024-01-16T00:13:35;10.10;;;6.00;;
34920;SDS011;21128;50.016;20.002;2024-01-16T00:16:02;12.40;;;6.30;;
34920;SDS011;21128;50.016;20.002;2024-01-16T00:18:30;9.90;;;6.00;;
34920;SDS011;21128;50.016;20.002;2024-01-16T00:20:56;11.10;;;6.30;;
34920;SDS011;21128;50.016;20.002;2024-01-16T00:23:23;9.70;;;5.30;;
34920;SDS011;21128;50.016;20.002;2024-01-16T00:25:51;8.00;;;5.60;;
34920;SDS011;21128;50.016;20.002;2024-01-16T00:28:18;11.50;;;6.40;;
34920;SDS011;21128;50.016;20.002;2024-01-16T00:30:46;9.70;;;6.20;;
34920;SDS011;21128;50.016;20.002;2024-01-16T00:33:13;9.40;;;6.10;;
34920;SDS011;21128;50.016;20.002;2024-01-16T00:35:41;11.20;;;6.20;;
34920;SDS011;21128;50.016;20.002;2024-01-16T00:38:08;10.30;;;6.40;;
34920;SDS011;21128;50.016;20.002;2024-01-16T00:40:35;10.20;;;5.80;;
34920;SDS011;21128;50.016;20.002;2024-01-16T00:43:04;11.70;;;5.80;;
34920;SDS011;21128;50.016;20.002;2024-01-16T00:45:31;9.10;;;5.80;;
34920;SDS011;21128;50.016;20.002;2024-01-16T00:47:58;12.40;;;6.80;;
34920;SDS011;21128;50.016;20.002;2024-01-16T00:50:25;11.70;;;5.50;;
34920;SDS011;21128;50.016;20.002;2024-01-16T00:52:53;8.50;;;6.10;;
34920;SDS011;21128;50.016;20.002;2024-01-16T00:55:22;11.00;;;6.80;;
34920;SDS011;21128;50.016;20.002;2024-01-16T00:57:49;10.90;;;7.30;;
34920;SDS011;21128;50.016;20.002;2024-01-16T01:00:16;10.70;;;7.00;;
34920;SDS011;21128;50.016;20.002;2024-01-16T01:02:42;11.90;;;7.30;;
34920;SDS011;21128;50.016;20.002;2024-01-16T01:05:13;10.10;;;6.90;;
34920;SDS011;21128;50.016;20.002;2024-01-16T01:07:39;11.80;;;8.40;;
34920;SDS011;21128;50.016;20.002;2024-01-16T01:10:06;12.60;;;6.70;;
34920;SDS011;21128;50.016;20.002;2024-01-16T01:12:33;11.50;;;7.70;;
34920;SDS011;21128;50.016;20.002;2024-01-16T01:15:01;8.80;;;6.90;;
34920;SDS011;21128;50.016;20.002;2024-01-16T01:17:28;15.30;;;7.60;;
34920;SDS011;21128;50.016;20.002;2024-01-16T01:19:54;12.90;;;7.90;;
34920;SDS011;21128;50.016;20.002;2024-01-16T01:22:21;12.20;;;7.60;;
34920;SDS011;21128;50.016;20.002;2024-01-16T01:24:48;12.40;;;8.00;;
34920;SDS011;21128;50.016;20.002;2024-01-16T01:27:18;13.80;;;7.80;;
34920;SDS011;21128;50.016;20.002;2024-01-16T01:29:47;11.30;;;7.50;;
34920;SDS011;21128;50.016;20.002;2024-01-16T01:32:14;15.20;;;8.40;;
34920;SDS011;21128;50.016;20.002;2024-01-16T01:34:41;13.30;;;8.40;;
34920;SDS011;21128;50.016;20.002;2024-01-16T01:37:08;13.40;;;8.70;;
34920;SDS011;21128;50.016;20.002;2024-01-16T01:39:35;12.20;;;7.70;;
34920;SDS011;21128;50.016;20.002;2024-01-16T01:42:02;10.80;;;7.80;;
34920;SDS011;21128;50.016;20.002;2024-01-16T01:44:29;12.60;;;7.20;;
34920;SDS011;21128;50.016;20.002;2024-01-16T01:46:55;13.30;;;8.50;;
34920;SDS011;21128;50.016;20.002;2024-01-16T01:49:23;11.80;;;8.00;;
34920;SDS011;21128;50.016;20.002;2024-01-16T01:51:52;14.10;;;7.70;;
34920;SDS011;21128;50.016;20.002;2024-01-16T01:54:20;13.20;;;8.70;;
34920;SDS011;21128;50.016;20.002;2024-01-16T01:56:49;16.30;;;8.00;;
34920;SDS011;21128;50.016;20.002;2024-01-16T01:59:19;13.70;;;8.60;;
34920;SDS011;21128;50.016;20.002;2024-01-16T02:01:49;14.30;;;9.20;;
34920;SDS011;21128;50.016;20.002;2024-01-16T02:04:19;13.30;;;9.40;;
34920;SDS011;21128;50.016;20.002;2024-01-16T02:06:46;13.10;;;8.50;;
34920;SDS011;21128;50.016;20.002;2024-01-16T02:09:13;13.30;;;9.00;;
34920;SDS011;21128;50.016;20.002;2024-01-16T02:11:40;14.70;;;9.20;;
34920;SDS011;21128;50.016;20.002;2024-01-16T02:14:10;12.50;;;7.90;;
34920;SDS011;21128;50.016;20.002;2024-01-16T02:16:38;15.10;;;8.60;;
34920;SDS011;21128;50.016;20.002;2024-01-16T02:19:06;11.70;;;8.50;;
34920;SDS011;21128;50.016;20.002;2024-01-16T02:21:40;16.50;;;8.90;;
34920;SDS011;21128;50.016;20.002;2024-01-16T02:24:10;16.90;;;9.40;;
34920;SDS011;21128;50.016;20.002;2024-01-16T02:26:38;14.60;;;8.80;;
34920;SDS011;21128;50.016;20.002;2024-01-16T02:29:07;14.40;;;8.90;;
34920;SDS011;21128;50.016;20.002;2024-01-16T02:31:37;14.70;;;9.20;;
34920;SDS011;21128;50.016;20.002;2024-01-16T02:34:04;15.10;;;9.60;;
34920;SDS011;21128;50.016;20.002;2024-01-16T02:36:31;18.10;;;9.60;;
34920;SDS011;21128;50.016;20.002;2024-01-16T02:38:58;13.50;;;8.40;;
34920;SDS011;21128;50.016;20.002;2024-01-16T02:41:25;14.90;;;9.00;;
34920;SDS011;21128;50.016;20.002;2024-01-16T02:43:53;16.70;;;8.20;;
34920;SDS011;21128;50.016;20.002;2024-01-16T02:46:19;13.90;;;8.40;;
34920;SDS011;21128;50.016;20.002;2024-01-16T02:48:46;14.20;;;8.70;;
34920;SDS011;21128;50.016;20.002;2024-01-16T02:51:13;13.20;;;8.00;;
34920;SDS011;21128;50.016;20.002;2024-01-16T02:53:40;14.10;;;8.30;;
34920;SDS011;21128;50.016;20.002;2024-01-16T02:56:07;13.10;;;8.50;;
34920;SDS011;21128;50.016;20.002;2024-01-16T02:58:35;13.80;;;7.60;;
34920;SDS011;21128;50.016;20.002;2024-01-16T03:01:02;14.30;;;8.40;;
34920;SDS011;21128;50.016;20.002;2024-01-16T03:03:29;17.20;;;7.60;;
34920;SDS011;21128;50.016;20.002;2024-01-16T03:05:56;9.70;;;6.50;;
34920;SDS011;21128;50.016;20.002;2024-01-16T03:08:22;13.00;;;7.00;;
34920;SDS011;21128;50.016;20.002;2024-01-16T03:10:49;10.90;;;6.90;;
34920;SDS011;21128;50.016;20.002;2024-01-16T03:13:16;12.30;;;7.10;;
34920;SDS011;21128;50.016;20.002;2024-01-16T03:15:42;13.10;;;6.90;;
34920;SDS011;21128;50.016;20.002;2024-01-16T03:18:09;12.30;;;8.20;;
34920;SDS011;21128;50.016;20.002;2024-01-16T03:20:39;9.90;;;6.30;;
34920;SDS011;21128;50.016;20.002;2024-01-16T03:23:06;10.40;;;6.30;;
34920;SDS011;21128;50.016;20.002;2024-01-16T03:25:32;13.20;;;7.50;;
34920;SDS011;21128;50.016;20.002;2024-01-16T03:28:05;14.70;;;7.20;;
34920;SDS011;21128;50.016;20.002;2024-01-16T03:30:34;9.60;;;6.40;;
34920;SDS011;21128;50.016;20.002;2024-01-16T03:33:01;10.90;;;5.90;;
34920;SDS011;21128;50.016;20.002;2024-01-16T03:35:31;10.10;;;6.00;;
34920;SDS011;21128;50.016;20.002;2024-01-16T03:37:58;7.90;;;5.40;;
34920;SDS011;21128;50.016;20.002;2024-01-16T03:40:28;7.70;;;5.60;;
34920;SDS011;21128;50.016;20.002;2024-01-16T03:43:01;6.20;;;4.70;;
34920;SDS011;21128;50.016;20.002;2024-01-16T03:45:28;7.30;;;5.00;;
34920;SDS011;21128;50.016;20.002;2024-01-16T03:47:55;7.40;;;4.80;;
34920;SDS011;21128;50.016;20.002;2024-01-16T03:50:22;7.90;;;5.10;;
34920;SDS011;21128;50.016;20.002;2024-01-16T03:52:48;6.90;;;4.40;;
34920;SDS011;21128;50.016;20.002;2024-01-16T03:55:15;10.60;;;4.70;;
34920;SDS011;21128;50.016;20.002;2024-01-16T03:57:42;6.70;;;4.40;;
34920;SDS011;21128;50.016;20.002;2024-01-16T04:00:10;7.60;;;4.30;;
34920;SDS011;21128;50.016;20.002;2024-01-16T04:02:38;7.20;;;4.10;;
34920;SDS011;21128;50.016;20.002;2024-01-16T04:05:05;7.50;;;4.30;;
34920;SDS011;21128;50.016;20.002;2024-01-16T04:07:32;8.30;;;4.70;;
34920;SDS011;21128;50.016;20.002;2024-01-16T04:10:02;12.90;;;4.50;;
34920;SDS011;21128;50.016;20.002;2024-01-16T04:12:31;5.60;;;4.30;;
34920;SDS011;21128;50.016;20.002;2024-01-16T04:14:58;6.00;;;3.70;;
34920;SDS011;21128;50.016;20.002;2024-01-16T04:17:25;7.40;;;4.80;;
34920;SDS011;21128;50.016;20.002;2024-01-16T04:19:52;9.00;;;5.00;;
34920;SDS011;21128;50.016;20.002;2024-01-16T04:22:21;7.20;;;4.20;;
34920;SDS011;21128;50.016;20.002;2024-01-16T04:24:48;6.70;;;4.40;;
34920;SDS011;21128;50.016;20.002;2024-01-16T04:27:15;7.70;;;5.10;;
34920;SDS011;21128;50.016;20.002;2024-01-16T04:29:42;7.40;;;3.90;;
34920;SDS011;21128;50.016;20.002;2024-01-16T04:32:09;11.10;;;5.00;;
34920;SDS011;21128;50.016;20.002;2024-01-16T04:34:36;6.00;;;4.30;;
34920;SDS011;21128;50.016;20.002;2024-01-16T04:37:03;8.20;;;5.00;;
34920;SDS011;21128;50.016;20.002;2024-01-16T04:39:29;7.50;;;4.70;;
34920;SDS011;21128;50.016;20.002;2024-01-16T04:41:56;6.70;;;4.70;;
34920;SDS011;21128;50.016;20.002;2024-01-16T04:44:23;8.80;;;5.10;;
34920;SDS011;21128;50.016;20.002;2024-01-16T04:46:50;11.20;;;5.70;;
34920;SDS011;21128;50.016;20.002;2024-01-16T04:49:16;9.10;;;5.10;;
34920;SDS011;21128;50.016;20.002;2024-01-16T04:51:44;6.70;;;5.20;;
34920;SDS011;21128;50.016;20.002;2024-01-16T04:54:11;9.20;;;5.60;;
34920;SDS011;21128;50.016;20.002;2024-01-16T04:56:38;8.90;;;5.20;;
34920;SDS011;21128;50.016;20.002;2024-01-16T04:59:05;7.60;;;4.70;;
34920;SDS011;21128;50.016;20.002;2024-01-16T05:01:32;7.50;;;4.80;;
34920;SDS011;21128;50.016;20.002;2024-01-16T05:03:58;5.40;;;4.10;;
34920;SDS011;21128;50.016;20.002;2024-01-16T05:06:28;7.10;;;4.30;;
34920;SDS011;21128;50.016;20.002;2024-01-16T05:08:55;6.40;;;4.60;;
34920;SDS011;21128;50.016;20.002;2024-01-16T05:11:22;7.90;;;4.90;;
34920;SDS011;21128;50.016;20.002;2024-01-16T05:13:51;6.60;;;4.30;;
34920;SDS011;21128;50.016;20.002;2024-01-16T05:16:24;7.30;;;5.00;;
34920;SDS011;21128;50.016;20.002;2024-01-16T05:18:51;11.10;;;4.70;;
34920;SDS011;21128;50.016;20.002;2024-01-16T05:21:19;6.40;;;3.70;;
34920;SDS011;21128;50.016;20.002;2024-01-16T05:23:49;8.30;;;5.00;;
34920;SDS011;21128;50.016;20.002;2024-01-16T05:26:16;7.50;;;4.60;;
34920;SDS011;21128;50.016;20.002;2024-01-16T05:28:43;5.80;;;4.60;;
34920;SDS011;21128;50.016;20.002;2024-01-16T05:31:10;7.40;;;4.10;;
34920;SDS011;21128;50.016;20.002;2024-01-16T05:33:36;10.20;;;5.70;;
34920;SDS011;21128;50.016;20.002;2024-01-16T05:36:03;7.70;;;5.00;;
34920;SDS011;21128;50.016;20.002;2024-01-16T05:38:30;9.50;;;5.00;;
34920;SDS011;21128;50.016;20.002;2024-01-16T05:40:57;8.50;;;5.00;;
34920;SDS011;21128;50.016;20.002;2024-01-16T05:43:23;8.30;;;4.90;;
34920;SDS011;21128;50.016;20.002;2024-01-16T05:45:50;9.90;;;5.30;;
34920;SDS011;21128;50.016;20.002;2024-01-16T05:48:18;9.30;;;5.30;;
34920;SDS011;21128;50.016;20.002;2024-01-16T05:50:45;7.70;;;5.10;;
34920;SDS011;21128;50.016;20.002;2024-01-16T05:53:12;9.50;;;5.60;;
34920;SDS011;21128;50.016;20.002;2024-01-16T05:55:39;10.90;;;5.40;;
34920;SDS011;21128;50.016;20.002;2024-01-16T05:58:06;9.50;;;5.60;;
34920;SDS011;21128;50.016;20.002;2024-01-16T06:00:32;8.70;;;5.80;;
34920;SDS011;21128;50.016;20.002;2024-01-16T06:03:00;8.60;;;4.90;;
34920;SDS011;21128;50.016;20.002;2024-01-16T06:05:27;9.00;;;5.90;;
34920;SDS011;21128;50.016;20.002;2024-01-16T06:07:58;8.20;;;5.60;;
34920;SDS011;21128;50.016;20.002;2024-01-16T06:10:26;8.60;;;5.20;;
34920;SDS011;21128;50.016;20.002;2024-01-16T06:12:53;10.60;;;5.30;;
34920;SDS011;21128;50.016;20.002;2024-01-16T06:15:20;9.40;;;5.50;;
34920;SDS011;21128;50.016;20.002;2024-01-16T06:17:46;8.70;;;5.60;;
34920;SDS011;21128;50.016;20.002;2024-01-16T06:20:13;8.60;;;5.20;;
34920;SDS011;21128;50.016;20.002;2024-01-16T06:22:40;8.10;;;5.10;;
34920;SDS011;21128;50.016;20.002;2024-01-16T06:25:07;10.30;;;6.00;;
34920;SDS011;21128;50.016;20.002;2024-01-16T06:27:34;9.50;;;5.80;;
34920;SDS011;21128;50.016;20.002;2024-01-16T06:30:01;9.10;;;5.90;;
34920;SDS011;21128;50.016;20.002;2024-01-16T06:32:28;12.80;;;6.30;;
34920;SDS011;21128;50.016;20.002;2024-01-16T06:34:54;10.50;;;7.00;;
34920;SDS011;21128;50.016;20.002;2024-01-16T06:37:21;8.50;;;6.40;;
34920;SDS011;21128;50.016;20.002;2024-01-16T06:39:48;11.50;;;6.70;;
34920;SDS011;21128;50.016;20.002;2024-01-16T06:42:15;11.40;;;7.50;;
34920;SDS011;21128;50.016;20.002;2024-01-16T06:44:43;9.50;;;6.40;;
34920;SDS011;21128;50.016;20.002;2024-01-16T06:47:10;11.10;;;6.60;;
34920;SDS011;21128;50.016;20.002;2024-01-16T06:49:39;8.40;;;5.60;;
34920;SDS011;21128;50.016;20.002;2024-01-16T06:52:07;11.70;;;7.00;;
34920;SDS011;21128;50.016;20.002;2024-01-16T06:54:34;10.00;;;6.90;;
34920;SDS011;21128;50.016;20.002;2024-01-16T06:57:01;13.80;;;7.60;;
34920;SDS011;21128;50.016;20.002;2024-01-16T06:59:28;18.20;;;8.00;;
34920;SDS011;21128;50.016;20.002;2024-01-16T07:02:00;14.50;;;8.30;;
34920;SDS011;21128;50.016;20.002;2024-01-16T07:04:26;11.90;;;8.00;;
34920;SDS011;21128;50.016;20.002;2024-01-16T07:06:59;13.00;;;8.50;;
34920;SDS011;21128;50.016;20.002;2024-01-16T07:09:29;13.70;;;8.20;;
34920;SDS011;21128;50.016;20.002;2024-01-16T07:11:56;14.20;;;8.80;;
34920;SDS011;21128;50.016;20.002;2024-01-16T07:14:22;17.70;;;8.20;;
34920;SDS011;21128;50.016;20.002;2024-01-16T07:16:49;13.10;;;8.80;;
34920;SDS011;21128;50.016;20.002;2024-01-16T07:19:16;12.20;;;7.90;;
34920;SDS011;21128;50.016;20.002;2024-01-16T07:21:43;13.40;;;8.00;;
34920;SDS011;21128;50.016;20.002;2024-01-16T07:24:13;14.80;;;7.90;;
34920;SDS011;21128;50.016;20.002;2024-01-16T07:26:40;13.90;;;8.30;;
34920;SDS011;21128;50.016;20.002;2024-01-16T07:29:10;11.40;;;8.00;;
34920;SDS011;21128;50.016;20.002;2024-01-16T07:31:37;13.50;;;7.90;;
34920;SDS011;21128;50.016;20.002;2024-01-16T07:34:07;11.40;;;7.70;;
34920;SDS011;21128;50.016;20.002;2024-01-16T07:36:34;12.00;;;8.00;;
34920;SDS011;21128;50.016;20.002;2024-01-16T07:39:00;13.70;;;9.40;;
34920;SDS011;21128;50.016;20.002;2024-01-16T07:41:30;13.10;;;8.80;;
34920;SDS011;21128;50.016;20.002;2024-01-16T07:43:57;12.70;;;8.90;;
34920;SDS011;21128;50.016;20.002;2024-01-16T07:46:23;17.00;;;9.10;;
34920;SDS011;21128;50.016;20.002;2024-01-16T07:48:50;15.10;;;8.70;;
34920;SDS011;21128;50.016;20.002;2024-01-16T07:51:17;14.80;;;9.40;;
34920;SDS011;21128;50.016;20.002;2024-01-16T07:53:44;13.10;;;9.30;;
34920;SDS011;21128;50.016;20.002;2024-01-16T07:56:13;14.00;;;8.60;;
34920;SDS011;21128;50.016;20.002;2024-01-16T07:58:42;15.40;;;9.70;;
34920;SDS011;21128;50.016;20.002;2024-01-16T08:01:09;14.00;;;8.90;;
34920;SDS011;21128;50.016;20.002;2024-01-16T08:03:39;15.20;;;9.10;;
34920;SDS011;21128;50.016;20.002;2024-01-16T08:06:06;14.20;;;9.10;;
34920;SDS011;21128;50.016;20.002;2024-01-16T08:08:32;25.60;;;9.50;;
34920;SDS011;21128;50.016;20.002;2024-01-16T08:11:00;20.50;;;9.00;;
34920;SDS011;21128;50.016;20.002;2024-01-16T08:13:27;13.00;;;8.20;;
34920;SDS011;21128;50.016;20.002;2024-01-16T08:15:57;15.10;;;8.50;;
34920;SDS011;21128;50.016;20.002;2024-01-16T08:18:27;13.10;;;8.10;;
34920;SDS011;21128;50.016;20.002;2024-01-16T08:20:53;19.60;;;9.00;;
34920;SDS011;21128;50.016;20.002;2024-01-16T08:23:20;19.00;;;8.50;;
34920;SDS011;21128;50.016;20.002;2024-01-16T08:25:47;14.90;;;8.80;;
34920;SDS011;21128;50.016;20.002;2024-01-16T08:28:14;21.30;;;8.80;;
34920;SDS011;21128;50.016;20.002;2024-01-16T08:30:41;18.50;;;8.50;;
34920;SDS011;21128;50.016;20.002;2024-01-16T08:33:08;17.60;;;9.10;;
34920;SDS011;21128;50.016;20.002;2024-01-16T08:35:38;19.20;;;7.90;;
34920;SDS011;21128;50.016;20.002;2024-01-16T08:38:08;20.50;;;7.00;;
34920;SDS011;21128;50.016;20.002;2024-01-16T08:40:35;15.90;;;7.80;;
34920;SDS011;21128;50.016;20.002;2024-01-16T08:43:01;16.40;;;7.40;;
34920;SDS011;21128;50.016;20.002;2024-01-16T08:45:30;13.20;;;6.60;;
34920;SDS011;21128;50.016;20.002;2024-01-16T08:47:56;13.40;;;6.90;;
34920;SDS011;21128;50.016;20.002;2024-01-16T08:50:24;16.60;;;7.30;;
34920;SDS011;21128;50.016;20.002;2024-01-16T08:52:51;13.80;;;5.80;;
34920;SDS011;21128;50.016;20.002;2024-01-16T08:55:17;11.40;;;5.90;;
34920;SDS011;21128;50.016;20.002;2024-01-16T08:57:46;12.10;;;6.40;;
34920;SDS011;21128;50.016;20.002;2024-01-16T09:00:13;14.60;;;6.20;;
34920;SDS011;21128;50.016;20.002;2024-01-16T09:02:42;12.10;;;6.10;;
34920;SDS011;21128;50.016;20.002;2024-01-16T09:05:08;11.90;;;6.40;;
34920;SDS011;21128;50.016;20.002;2024-01-16T09:07:35;11.10;;;6.00;;
34920;SDS011;21128;50.016;20.002;2024-01-16T09:10:02;10.30;;;5.30;;
34920;SDS011;21128;50.016;20.002;2024-01-16T09:12:29;8.80;;;4.90;;
34920;SDS011;21128;50.016;20.002;2024-01-16T09:14:56;10.40;;;4.40;;
34920;SDS011;21128;50.016;20.002;2024-01-16T09:17:22;12.50;;;5.90;;
34920;SDS011;21128;50.016;20.002;2024-01-16T09:19:49;14.70;;;5.80;;
34920;SDS011;21128;50.016;20.002;2024-01-16T09:22:16;11.60;;;5.40;;
34920;SDS011;21128;50.016;20.002;2024-01-16T09:24:42;17.50;;;5.80;;
34920;SDS011;21128;50.016;20.002;2024-01-16T09:27:10;11.80;;;6.00;;
34920;SDS011;21128;50.016;20.002;2024-01-16T09:29:36;13.00;;;5.80;;
34920;SDS011;21128;50.016;20.002;2024-01-16T09:32:04;10.40;;;4.90;;
34920;SDS011;21128;50.016;20.002;2024-01-16T09:34:31;13.00;;;5.50;;
34920;SDS011;21128;50.016;20.002;2024-01-16T09:36:58;11.90;;;5.40;;
34920;SDS011;21128;50.016;20.002;2024-01-16T09:39:27;8.70;;;4.60;;
34920;SDS011;21128;50.016;20.002;2024-01-16T09:41:54;8.90;;;4.60;;
34920;SDS011;21128;50.016;20.002;2024-01-16T09:44:21;16.80;;;5.20;;
34920;SDS011;21128;50.016;20.002;2024-01-16T09:46:48;11.70;;;5.20;;
34920;SDS011;21128;50.016;20.002;2024-01-16T09:49:18;8.30;;;4.30;;
34920;SDS011;21128;50.016;20.002;2024-01-16T09:51:45;9.10;;;3.70;;
34920;SDS011;21128;50.016;20.002;2024-01-16T09:54:12;9.10;;;3.90;;
34920;SDS011;21128;50.016;20.002;2024-01-16T09:56:42;7.10;;;3.60;;
34920;SDS011;21128;50.016;20.002;2024-01-16T09:59:12;10.60;;;4.00;;
34920;SDS011;21128;50.016;20.002;2024-01-16T10:01:43;6.60;;;2.90;;
34920;SDS011;21128;50.016;20.002;2024-01-16T10:04:11;15.10;;;4.20;;
34920;SDS011;21128;50.016;20.002;2024-01-16T10:06:39;10.70;;;3.10;;
34920;SDS011;21128;50.016;20.002;2024-01-16T10:09:10;21.50;;;4.30;;
34920;SDS011;21128;50.016;20.002;2024-01-16T10:11:38;10.50;;;2.60;;
34920;SDS011;21128;50.016;20.002;2024-01-16T10:14:06;11.90;;;3.50;;
34920;SDS011;21128;50.016;20.002;2024-01-16T10:19:47;5.70;;;2.90;;
34920;SDS011;21128;50.016;20.002;2024-01-16T10:22:19;9.10;;;3.50;;
34920;SDS011;21128;50.016;20.002;2024-01-16T10:24:47;8.00;;;2.90;;
34920;SDS011;21128;50.016;20.002;2024-01-16T10:27:15;6.20;;;2.90;;
34920;SDS011;21128;50.016;20.002;2024-01-16T10:29:54;6.20;;;3.50;;
34920;SDS011;21128;50.016;20.002;2024-01-16T10:32:33;6.30;;;3.40;;
34920;SDS011;21128;50.016;20.002;2024-01-16T10:35:07;7.20;;;2.80;;
34920;SDS011;21128;50.016;20.002;2024-01-16T10:37:55;6.70;;;3.50;;
34920;SDS011;21128;50.016;20.002;2024-01-16T10:40:23;9.30;;;3.50;;
34920;SDS011;21128;50.016;20.002;2024-01-16T10:42:57;9.30;;;3.50;;
34920;SDS011;21128;50.016;20.002;2024-01-16T10:45:25;8.40;;;4.00;;
34920;SDS011;21128;50.016;20.002;2024-01-16T10:48:03;7.10;;;3.90;;
34920;SDS011;21128;50.016;20.002;2024-01-16T10:50:36;8.40;;;4.20;;
34920;SDS011;21128;50.016;20.002;2024-01-16T10:53:04;11.60;;;4.30;;
34920;SDS011;21128;50.016;20.002;2024-01-16T10:55:49;10.50;;;4.70;;
34920;SDS011;21128;50.016;20.002;2024-01-16T10:58:23;10.30;;;4.50;;
34920;SDS011;21128;50.016;20.002;2024-01-16T11:00:53;11.80;;;5.30;;
34920;SDS011;21128;50.016;20.002;2024-01-16T11:04:06;16.10;;;5.20;;
34920;SDS011;21128;50.016;20.002;2024-01-16T11:06:19;18.30;;;6.20;;
34920;SDS011;21128;50.016;20.002;2024-01-16T11:08:46;11.10;;;5.00;;
34920;SDS011;21128;50.016;20.002;2024-01-16T11:11:14;12.60;;;5.30;;
34920;SDS011;21128;50.016;20.002;2024-01-16T11:13:42;7.70;;;4.60;;
34920;SDS011;21128;50.016;20.002;2024-01-16T11:16:11;8.00;;;4.40;;
34920;SDS011;21128;50.016;20.002;2024-01-16T11:18:38;10.20;;;4.30;;
34920;SDS011;21128;50.016;20.002;2024-01-16T11:21:23;10.90;;;4.90;;
34920;SDS011;21128;50.016;20.002;2024-01-16T11:23:52;7.00;;;3.30;;
34920;SDS011;21128;50.016;20.002;2024-01-16T11:26:32;13.60;;;4.80;;
34920;SDS011;21128;50.016;20.002;2024-01-16T11:31:54;27.30;;;6.90;;
34920;SDS011;21128;50.016;20.002;2024-01-16T11:37:29;7.20;;;3.30;;
34920;SDS011;21128;50.016;20.002;2024-01-16T11:42:48;14.70;;;4.00;;
34920;SDS011;21128;50.016;20.002;2024-01-16T11:48:11;7.80;;;3.60;;
34920;SDS011;21128;50.016;20.002;2024-01-16T11:50:38;9.20;;;3.10;;
34920;SDS011;21128;50.016;20.002;2024-01-16T11:53:05;8.60;;;3.50;;
34920;SDS011;21128;50.016;20.002;2024-01-16T11:55:33;4.90;;;2.90;;
34920;SDS011;21128;50.016;20.002;2024-01-16T12:00:59;5.70;;;2.90;;
34920;SDS011;21128;50.016;20.002;2024-01-16T12:03:25;5.40;;;2.80;;
34920;SDS011;21128;50.016;20.002;2024-01-16T12:05:59;6.40;;;3.80;;
34920;SDS011;21128;50.016;20.002;2024-01-16T12:08:26;8.30;;;3.20;;
34920;SDS011;21128;50.016;20.002;2024-01-16T12:10:54;7.80;;;3.70;;
34920;SDS011;21128;50.016;20.002;2024-01-16T12:13:21;8.50;;;4.70;;
34920;SDS011;21128;50.016;20.002;2024-01-16T12:15:48;7.70;;;4.30;;
34920;SDS011;21128;50.016;20.002;2024-01-16T12:18:18;10.00;;;5.10;;
34920;SDS011;21128;50.016;20.002;2024-01-16T12:20:45;11.90;;;4.50;;
34920;SDS011;21128;50.016;20.002;2024-01-16T12:23:12;10.40;;;4.60;;
34920;SDS011;21128;50.016;20.002;2024-01-16T12:25:40;11.90;;;4.90;;
34920;SDS011;21128;50.016;20.002;2024-01-16T12:28:07;10.00;;;4.50;;
34920;SDS011;21128;50.016;20.002;2024-01-16T12:30:37;11.90;;;5.40;;
34920;SDS011;21128;50.016;20.002;2024-01-16T12:33:05;10.30;;;4.30;;
34920;SDS011;21128;50.016;20.002;2024-01-16T12:35:34;11.20;;;5.20;;
34920;SDS011;21128;50.016;20.002;2024-01-16T12:38:05;12.40;;;6.30;;
34920;SDS011;21128;50.016;20.002;2024-01-16T12:40:36;10.70;;;5.00;;
34920;SDS011;21128;50.016;20.002;2024-01-16T12:43:03;12.60;;;4.50;;
34920;SDS011;21128;50.016;20.002;2024-01-16T12:45:31;9.00;;;4.90;;
34920;SDS011;21128;50.016;20.002;2024-01-16T12:47:59;13.00;;;5.00;;
34920;SDS011;21128;50.016;20.002;2024-01-16T12:50:27;8.50;;;5.00;;
34920;SDS011;21128;50.016;20.002;2024-01-16T12:53:02;8.90;;;4.90;;
34920;SDS011;21128;50.016;20.002;2024-01-16T12:55:37;11.20;;;4.80;;
34920;SDS011;21128;50.016;20.002;2024-01-16T12:58:15;8.10;;;4.60;;
34920;SDS011;21128;50.016;20.002;2024-01-16T13:00:49;7.00;;;4.20;;
34920;SDS011;21128;50.016;20.002;2024-01-16T13:03:21;7.80;;;4.50;;
34920;SDS011;21128;50.016;20.002;2024-01-16T13:05:56;8.20;;;3.80;;
34920;SDS011;21128;50.016;20.002;2024-01-16T13:08:24;7.50;;;3.30;;
34920;SDS011;21128;50.016;20.002;2024-01-16T13:11:07;5.10;;;3.30;;
34920;SDS011;21128;50.016;20.002;2024-01-16T13:13:36;6.70;;;2.80;;
34920;SDS011;21128;50.016;20.002;2024-01-16T13:16:04;5.70;;;3.10;;
34920;SDS011;21128;50.016;20.002;2024-01-16T13:18:34;10.10;;;3.00;;
34920;SDS011;21128;50.016;20.002;2024-01-16T13:21:04;6.50;;;2.90;;
34920;SDS011;21128;50.016;20.002;2024-01-16T13:23:31;5.40;;;3.00;;
34920;SDS011;21128;50.016;20.002;2024-01-16T13:25:58;8.30;;;3.20;;
34920;SDS011;21128;50.016;20.002;2024-01-16T13:28:31;7.00;;;3.40;;
34920;SDS011;21128;50.016;20.002;2024-01-16T13:30:57;5.10;;;2.80;;
34920;SDS011;21128;50.016;20.002;2024-01-16T13:33:24;6.90;;;3.20;;
34920;SDS011;21128;50.016;20.002;2024-01-16T13:35:54;6.10;;;3.00;;
34920;SDS011;21128;50.016;20.002;2024-01-16T13:38:21;7.80;;;3.90;;
34920;SDS011;21128;50.016;20.002;2024-01-16T13:40:48;9.80;;;3.90;;
34920;SDS011;21128;50.016;20.002;2024-01-16T13:43:16;20.10;;;5.40;;
34920;SDS011;21128;50.016;20.002;2024-01-16T13:45:43;6.70;;;3.50;;
34920;SDS011;21128;50.016;20.002;2024-01-16T13:48:10;5.60;;;3.60;;
34920;SDS011;21128;50.016;20.002;2024-01-16T13:50:37;8.80;;;4.30;;
34920;SDS011;21128;50.016;20.002;2024-01-16T13:53:04;8.70;;;4.20;;
34920;SDS011;21128;50.016;20.002;2024-01-16T13:55:31;10.10;;;4.30;;
34920;SDS011;21128;50.016;20.002;2024-01-16T13:58:01;9.70;;;4.00;;
34920;SDS011;21128;50.016;20.002;2024-01-16T14:00:28;7.10;;;4.00;;
34920;SDS011;21128;50.016;20.002;2024-01-16T14:02:57;17.00;;;4.70;;
34920;SDS011;21128;50.016;20.002;2024-01-16T14:05:24;9.30;;;4.60;;
34920;SDS011;21128;50.016;20.002;2024-01-16T14:07:52;10.60;;;4.10;;
34920;SDS011;21128;50.016;20.002;2024-01-16T14:10:19;12.90;;;4.80;;
34920;SDS011;21128;50.016;20.002;2024-01-16T14:12:48;7.40;;;4.50;;
34920;SDS011;21128;50.016;20.002;2024-01-16T14:15:16;11.20;;;5.00;;
34920;SDS011;21128;50.016;20.002;2024-01-16T14:17:50;20.00;;;6.70;;
34920;SDS011;21128;50.016;20.002;2024-01-16T14:20:19;16.00;;;7.70;;
34920;SDS011;21128;50.016;20.002;2024-01-16T14:22:50;9.50;;;5.50;;
34920;SDS011;21128;50.016;20.002;2024-01-16T14:25:19;13.30;;;6.10;;
34920;SDS011;21128;50.016;20.002;2024-01-16T14:28:02;24.20;;;7.20;;
34920;SDS011;21128;50.016;20.002;2024-01-16T14:30:34;16.30;;;8.20;;
34920;SDS011;21128;50.016;20.002;2024-01-16T14:33:01;20.80;;;8.60;;
34920;SDS011;21128;50.016;20.002;2024-01-16T14:35:28;22.20;;;8.40;;
34920;SDS011;21128;50.016;20.002;2024-01-16T14:37:55;15.80;;;8.30;;
34920;SDS011;21128;50.016;20.002;2024-01-16T14:40:23;24.10;;;7.80;;
34920;SDS011;21128;50.016;20.002;2024-01-16T14:42:54;18.80;;;8.60;;
34920;SDS011;21128;50.016;20.002;2024-01-16T14:45:23;17.60;;;8.00;;
34920;SDS011;21128;50.016;20.002;2024-01-16T14:47:51;19.70;;;8.30;;
34920;SDS011;21128;50.016;20.002;2024-01-16T14:50:20;13.90;;;7.70;;